createdAt,value
2023-08-08T00:01:48.183Z,97557.55
2023-08-08T00:04:18.299Z,97556.30
2023-08-08T00:06:50.060Z,97562.04
2023-08-08T00:09:21.591Z,97567.89
2023-08-08T00:11:53.173Z,97575.16
2023-08-08T00:14:23.272Z,97580.45
2023-08-08T00:16:54.890Z,97584.50
2023-08-08T00:19:26.594Z,97579.27
2023-08-08T00:21:58.308Z,97579.78
2023-08-08T00:24:30.235Z,97571.77
2023-08-08T00:27:01.863Z,97575.02
2023-08-08T00:29:33.439Z,97572.92
2023-08-08T00:32:05.647Z,97573.78
2023-08-08T00:34:37.875Z,97577.66
2023-08-08T00:37:09.662Z,97577.16
2023-08-08T00:39:43.742Z,97576.39
2023-08-08T00:42:16.999Z,97578.85
2023-08-08T00:44:48.531Z,97584.79
2023-08-08T00:47:18.646Z,97584.73
2023-08-08T00:49:50.947Z,97582.56
2023-08-08T00:52:22.933Z,97584.64
2023-08-08T00:54:55.431Z,97585.37
2023-08-08T00:57:27.838Z,97587.63
2023-08-08T00:59:59.679Z,97592.95
2023-08-08T01:02:31.508Z,97596.64
2023-08-08T01:05:05.687Z,97600.96
2023-08-08T01:07:45.945Z,97603.48
2023-08-08T01:10:22.556Z,97600.73
2023-08-08T01:13:00.287Z,97602.24
2023-08-08T01:15:36.812Z,97602.92
2023-08-08T01:18:12.000Z,97604.81
2023-08-08T01:20:45.269Z,97604.04
2023-08-08T01:23:21.408Z,97604.25
2023-08-08T01:25:54.006Z,97603.09
2023-08-08T01:28:26.354Z,97603.48
2023-08-08T01:30:58.041Z,97603.95
2023-08-08T01:33:30.034Z,97603.98
2023-08-08T01:36:04.895Z,97602.55
2023-08-08T01:38:41.879Z,97603.74
2023-08-08T01:41:14.500Z,97605.36
2023-08-08T01:43:48.569Z,97599.21
2023-08-08T01:46:21.031Z,97603.12
2023-08-08T01:48:52.628Z,97599.98
2023-08-08T01:51:25.317Z,97598.27
2023-08-08T01:53:56.985Z,97598.96
2023-08-08T01:56:28.538Z,97602.89
2023-08-08T01:58:58.775Z,97607.56
2023-08-08T02:01:30.658Z,97607.39
2023-08-08T02:04:02.371Z,97608.70
2023-08-08T02:06:33.958Z,97611.08
2023-08-08T02:09:04.220Z,97608.17
2023-08-08T02:11:35.767Z,97606.68
2023-08-08T02:14:05.860Z,97612.21
2023-08-08T02:16:38.157Z,97612.02
2023-08-08T02:19:10.006Z,97617.36
2023-08-08T02:21:41.708Z,97617.33
2023-08-08T02:24:11.820Z,97619.60
2023-08-08T02:26:43.378Z,97616.63
2023-08-08T02:29:13.482Z,97622.38
2023-08-08T02:31:45.176Z,97623.58
2023-08-08T02:34:16.834Z,97623.90
2023-08-08T02:36:48.331Z,97626.02
2023-08-08T02:39:18.956Z,97625.75
2023-08-08T02:41:50.480Z,97630.27
2023-08-08T02:44:23.571Z,97630.11
2023-08-08T02:46:55.106Z,97634.67
2023-08-08T02:49:25.372Z,97640.44
2023-08-08T02:51:57.621Z,97636.89
2023-08-08T02:54:32.014Z,97642.23
2023-08-08T02:57:04.187Z,97648.90
2023-08-08T02:59:35.776Z,97652.22
2023-08-08T03:02:09.823Z,97651.70
2023-08-08T03:04:43.060Z,97652.70
2023-08-08T03:07:14.829Z,97662.69
2023-08-08T03:09:46.429Z,97659.21
2023-08-08T03:12:18.594Z,97666.81
2023-08-08T03:14:50.416Z,97665.66
2023-08-08T03:17:22.172Z,97669.81
2023-08-08T03:19:55.056Z,97671.82
2023-08-08T03:22:28.351Z,97678.20
2023-08-08T03:25:00.459Z,97681.08
2023-08-08T03:27:32.298Z,97677.48
2023-08-08T03:30:05.439Z,97680.92
2023-08-08T03:32:42.258Z,97684.27
2023-08-08T03:35:16.035Z,97686.13
2023-08-08T03:37:48.055Z,97688.68
2023-08-08T03:40:20.381Z,97690.19
2023-08-08T03:42:52.176Z,97693.85
2023-08-08T03:45:24.127Z,97696.41
2023-08-08T03:47:55.734Z,97696.61
2023-08-08T03:50:27.631Z,97699.39
2023-08-08T03:52:59.206Z,97710.44
2023-08-08T03:55:30.758Z,97712.73
2023-08-08T03:58:02.527Z,97715.80
2023-08-08T04:00:32.624Z,97721.40
2023-08-08T04:03:04.510Z,97719.34
2023-08-08T04:05:36.125Z,97721.27
2023-08-08T04:08:06.883Z,97727.30
2023-08-08T04:10:38.502Z,97726.74
2023-08-08T04:13:08.648Z,97727.83
2023-08-08T04:15:41.265Z,97726.36
2023-08-08T04:18:13.124Z,97730.38
2023-08-08T04:20:45.333Z,97732.52
2023-08-08T04:23:16.955Z,97734.48
2023-08-08T04:25:48.780Z,97738.77
2023-08-08T04:28:20.509Z,97738.55
2023-08-08T04:30:52.132Z,97737.95
2023-08-08T04:33:23.903Z,97744.92
2023-08-08T04:35:55.432Z,97750.30
2023-08-08T04:38:27.230Z,97749.05
2023-08-08T04:40:58.807Z,97752.66
2023-08-08T04:43:30.373Z,97752.67
2023-08-08T04:46:00.455Z,97757.35
2023-08-08T04:48:32.012Z,97767.28
2023-08-08T04:51:02.086Z,97767.97
2023-08-08T04:53:33.590Z,97772.61
2023-08-08T04:56:03.736Z,97767.38
2023-08-08T04:58:35.326Z,97770.99
2023-08-08T05:01:05.481Z,97776.88
2023-08-08T05:03:37.834Z,97779.20
2023-08-08T05:06:09.482Z,97780.88
2023-08-08T05:08:41.018Z,97782.55
2023-08-08T05:11:11.464Z,97781.92
2023-08-08T05:13:43.925Z,97784.33
2023-08-08T05:16:15.543Z,97782.27
2023-08-08T05:18:47.114Z,97787.70
2023-08-08T05:21:18.597Z,97792.45
2023-08-08T05:23:50.142Z,97797.49
2023-08-08T05:26:20.229Z,97799.59
2023-08-08T05:28:51.899Z,97800.25
2023-08-08T05:31:23.460Z,97799.98
2023-08-08T05:33:55.022Z,97803.19
2023-08-08T05:36:26.651Z,97799.20
2023-08-08T05:38:58.134Z,97798.18
2023-08-08T05:41:28.217Z,97802.43
2023-08-08T05:43:59.792Z,97806.79
2023-08-08T05:46:29.892Z,97810.23
2023-08-08T05:49:02.459Z,97813.79
2023-08-08T05:51:34.412Z,97814.09
2023-08-08T05:54:06.227Z,97813.16
2023-08-08T05:56:41.112Z,97813.33
2023-08-08T05:59:12.676Z,97813.05
2023-08-08T06:01:45.479Z,97815.19
2023-08-08T06:04:17.237Z,97812.11
2023-08-08T06:06:50.287Z,97811.71
2023-08-08T06:09:23.467Z,97814.98
2023-08-08T06:11:55.039Z,97812.97
2023-08-08T06:14:26.673Z,97813.31
2023-08-08T06:16:58.251Z,97819.08
2023-08-08T06:19:29.779Z,97817.83
2023-08-08T06:22:01.580Z,97813.88
2023-08-08T06:24:33.758Z,97814.73
2023-08-08T06:27:05.968Z,97817.52
2023-08-08T06:29:37.540Z,97816.86
2023-08-08T06:32:09.958Z,97818.94
2023-08-08T06:34:41.552Z,97823.09
2023-08-08T06:37:13.230Z,97819.42
2023-08-08T06:39:45.028Z,97820.91
2023-08-08T06:42:16.728Z,97820.52
2023-08-08T06:44:56.148Z,97817.77
2023-08-08T06:47:27.783Z,97819.09
2023-08-08T06:49:59.421Z,97813.27
2023-08-08T06:52:31.176Z,97811.95
2023-08-08T06:55:03.050Z,97809.27
2023-08-08T06:57:36.695Z,97808.12
2023-08-08T07:00:11.473Z,97806.89
2023-08-08T07:02:43.388Z,97803.31
2023-08-08T07:05:15.068Z,97802.88
2023-08-08T07:07:47.240Z,97804.13
2023-08-08T07:10:19.086Z,97803.39
2023-08-08T07:12:50.889Z,97804.61
2023-08-08T07:15:23.367Z,97803.58
2023-08-08T07:17:55.049Z,97805.98
2023-08-08T07:20:26.789Z,97807.48
2023-08-08T07:22:58.652Z,97806.30
2023-08-08T07:25:30.370Z,97807.29
2023-08-08T07:28:01.957Z,97809.59
2023-08-08T07:30:33.556Z,97810.29
2023-08-08T07:33:05.457Z,97807.16
2023-08-08T07:35:38.151Z,97806.24
2023-08-08T07:38:09.702Z,97801.08
2023-08-08T07:40:42.139Z,97802.00
2023-08-08T07:43:14.095Z,97799.29
2023-08-08T07:45:46.079Z,97802.05
2023-08-08T07:48:17.793Z,97795.61
2023-08-08T07:50:49.322Z,97798.92
2023-08-08T07:53:20.975Z,97800.70
2023-08-08T07:55:52.651Z,97802.45
2023-08-08T07:58:27.239Z,97800.77
2023-08-08T08:01:03.258Z,97806.98
2023-08-08T08:03:35.231Z,97805.63
2023-08-08T08:06:07.346Z,97807.30
2023-08-08T08:08:38.990Z,97808.83
2023-08-08T08:11:10.985Z,97811.58
2023-08-08T08:13:42.745Z,97808.16
2023-08-08T08:16:14.475Z,97807.86
2023-08-08T08:18:46.238Z,97804.84
2023-08-08T08:21:18.861Z,97798.90
2023-08-08T08:23:50.707Z,97797.43
2023-08-08T08:26:22.352Z,97799.60
2023-08-08T08:28:53.820Z,97798.31
2023-08-08T08:31:25.365Z,97799.23
2023-08-08T08:33:58.537Z,97795.83
2023-08-08T08:36:30.281Z,97796.69
2023-08-08T08:39:01.849Z,97796.36
2023-08-08T08:41:37.492Z,97797.33
2023-08-08T08:44:10.012Z,97801.27
2023-08-08T08:46:42.192Z,97799.27
2023-08-08T08:49:14.668Z,97795.38
2023-08-08T08:51:46.466Z,97792.98
2023-08-08T08:54:19.749Z,97792.67
2023-08-08T08:56:52.523Z,97788.36
2023-08-08T08:59:24.500Z,97786.17
2023-08-08T09:01:57.572Z,97782.77
2023-08-08T09:04:30.691Z,97788.80
2023-08-08T09:07:02.984Z,97801.40
2023-08-08T09:09:37.468Z,97799.30
2023-08-08T09:12:10.581Z,97796.86
2023-08-08T09:14:44.377Z,97796.33
2023-08-08T09:17:16.536Z,97792.46
2023-08-08T09:19:48.689Z,97793.35
2023-08-08T09:22:21.334Z,97787.83
2023-08-08T09:24:52.897Z,97785.92
2023-08-08T09:27:24.633Z,97786.41
2023-08-08T09:29:56.317Z,97785.33
2023-08-08T09:32:32.213Z,97788.55
2023-08-08T09:35:04.463Z,97794.47
2023-08-08T09:37:36.215Z,97792.32
2023-08-08T09:40:12.384Z,97794.72
2023-08-08T09:42:44.587Z,97785.84
2023-08-08T09:45:16.135Z,97786.52
2023-08-08T09:47:47.830Z,97781.70
2023-08-08T09:50:20.314Z,97770.83
2023-08-08T09:52:54.262Z,97774.77
2023-08-08T09:55:26.220Z,97772.67
2023-08-08T09:57:59.185Z,97772.66
2023-08-08T10:00:32.067Z,97770.98
2023-08-08T10:03:05.338Z,97769.42
2023-08-08T10:05:38.417Z,97768.51
2023-08-08T10:08:10.482Z,97770.52
2023-08-08T10:10:43.786Z,97773.64
2023-08-08T10:13:23.145Z,97770.40
2023-08-08T10:15:55.446Z,97769.23
2023-08-08T10:18:29.432Z,97772.30
2023-08-08T10:21:01.219Z,97775.16
2023-08-08T10:23:39.549Z,97782.24
2023-08-08T10:26:22.173Z,97778.95
2023-08-08T10:29:00.283Z,97779.76
2023-08-08T10:31:37.584Z,97777.91
2023-08-08T10:34:10.930Z,97769.91
2023-08-08T10:36:53.741Z,97769.48
2023-08-08T10:39:26.886Z,97765.05
2023-08-08T10:42:02.870Z,97758.43
2023-08-08T10:44:43.203Z,97757.98
2023-08-08T10:47:15.197Z,97757.34
2023-08-08T10:49:47.048Z,97754.60
2023-08-08T10:52:18.820Z,97751.98
2023-08-08T10:54:56.537Z,97750.88
2023-08-08T10:57:30.778Z,97754.54
2023-08-08T11:00:25.671Z,97749.89
2023-08-08T11:02:57.651Z,97750.85
2023-08-08T11:05:31.868Z,97750.93
2023-08-08T11:08:05.046Z,97751.11
2023-08-08T11:10:40.802Z,97757.30
2023-08-08T11:13:12.459Z,97751.95
2023-08-08T11:15:45.482Z,97756.21
2023-08-08T11:18:17.306Z,97769.38
2023-08-08T11:20:50.330Z,97774.58
2023-08-08T11:23:22.191Z,97778.14
2023-08-08T11:28:28.333Z,97781.05
2023-08-08T11:31:00.338Z,97778.15
2023-08-08T11:33:33.276Z,97777.63
2023-08-08T11:36:07.857Z,97776.27
2023-08-08T11:38:41.997Z,97779.45
2023-08-08T11:41:15.041Z,97773.40
2023-08-08T11:43:47.301Z,97779.34
2023-08-08T11:46:19.938Z,97773.27
2023-08-08T11:48:51.629Z,97777.40
2023-08-08T11:51:24.083Z,97787.02
2023-08-08T11:53:56.757Z,97782.08
2023-08-08T11:56:29.641Z,97778.95
2023-08-08T11:59:01.807Z,97774.59
2023-08-08T12:01:35.412Z,97771.12
2023-08-08T12:04:11.149Z,97767.48
2023-08-08T12:06:45.397Z,97773.79
2023-08-08T12:09:17.374Z,97771.30
2023-08-08T12:11:49.796Z,97770.88
2023-08-08T12:14:22.066Z,97772.40
2023-08-08T12:16:55.915Z,97774.63
2023-08-08T12:19:30.012Z,97768.75
2023-08-08T12:22:02.148Z,97768.48
2023-08-08T12:24:34.257Z,97775.16
2023-08-08T12:27:06.636Z,97776.55
2023-08-08T12:29:38.271Z,97778.31
2023-08-08T12:32:09.972Z,97776.11
2023-08-08T12:34:41.615Z,97775.92
2023-08-08T12:37:13.252Z,97781.80
2023-08-08T12:39:45.701Z,97781.48
2023-08-08T12:42:17.927Z,97783.45
2023-08-08T12:44:52.272Z,97777.35
2023-08-08T12:47:23.911Z,97781.11
2023-08-08T12:49:55.530Z,97775.20
2023-08-08T12:52:27.452Z,97781.25
2023-08-08T12:54:59.033Z,97781.04
2023-08-08T12:57:30.933Z,97783.73
2023-08-08T13:00:02.762Z,97787.58
2023-08-08T13:02:35.014Z,97793.61
2023-08-08T13:05:08.149Z,97793.48
2023-08-08T13:07:40.122Z,97795.11
2023-08-08T13:10:12.714Z,97793.23
2023-08-08T13:12:44.264Z,97800.17
2023-08-08T13:15:15.999Z,97795.68
2023-08-08T13:17:47.920Z,97796.20
2023-08-08T13:20:19.710Z,97794.64
2023-08-08T13:22:51.371Z,97792.08
2023-08-08T13:25:22.973Z,97794.90
2023-08-08T13:27:54.559Z,97790.32
2023-08-08T13:30:26.271Z,97785.33
2023-08-08T13:33:00.462Z,97779.02
2023-08-08T13:35:32.470Z,97781.15
2023-08-08T13:38:04.185Z,97782.73
2023-08-08T13:40:36.205Z,97783.69
2023-08-08T13:43:07.885Z,97776.77
2023-08-08T13:45:40.460Z,97778.81
2023-08-08T13:48:12.373Z,97775.91
2023-08-08T13:50:44.028Z,97772.38
2023-08-08T13:53:15.595Z,97774.20
2023-08-08T13:55:47.223Z,97778.69
2023-08-08T13:58:18.869Z,97773.64
2023-08-08T14:00:50.516Z,97771.37
2023-08-08T14:03:23.422Z,97774.41
2023-08-08T14:05:55.212Z,97775.20
2023-08-08T14:08:26.927Z,97779.28
2023-08-08T14:10:58.674Z,97781.54
2023-08-08T14:13:30.344Z,97788.66
2023-08-08T14:16:02.091Z,97784.97
2023-08-08T14:18:33.927Z,97792.82
2023-08-08T14:21:05.842Z,97789.66
2023-08-08T14:23:37.621Z,97783.48
2023-08-08T14:26:09.272Z,97787.93
2023-08-08T14:28:40.941Z,97786.63
2023-08-08T14:31:12.657Z,97789.77
2023-08-08T14:33:44.366Z,97788.55
2023-08-08T14:36:16.046Z,97784.09
2023-08-08T14:38:47.714Z,97787.30
2023-08-08T14:41:19.291Z,97797.84
2023-08-08T14:43:50.898Z,97795.27
2023-08-08T14:46:22.462Z,97798.18
2023-08-08T14:48:54.198Z,97798.46
2023-08-08T14:51:26.616Z,97799.39
2023-08-08T14:53:58.354Z,97801.27
2023-08-08T14:56:30.442Z,97802.04
2023-08-08T14:59:02.036Z,97800.13
2023-08-08T15:01:34.362Z,97806.54
2023-08-08T15:04:07.144Z,97798.59
2023-08-08T15:06:39.991Z,97802.30
2023-08-08T15:09:12.281Z,97800.09
2023-08-08T15:11:44.142Z,97802.58
2023-08-08T15:14:15.673Z,97800.13
2023-08-08T15:16:53.304Z,97796.17
2023-08-08T15:19:25.073Z,97796.76
2023-08-08T15:21:57.392Z,97802.78
2023-08-08T15:24:29.449Z,97798.77
2023-08-08T15:27:01.372Z,97800.51
2023-08-08T15:29:33.318Z,97799.65
2023-08-08T15:32:05.129Z,97800.36
2023-08-08T15:34:37.411Z,97793.70
2023-08-08T15:37:10.108Z,97796.19
2023-08-08T15:39:41.692Z,97794.31
2023-08-08T15:42:13.248Z,97790.77
2023-08-08T15:44:45.099Z,97785.05
2023-08-08T15:47:16.719Z,97788.77
2023-08-08T15:49:49.070Z,97785.73
2023-08-08T15:52:21.057Z,97785.79
2023-08-08T15:54:53.334Z,97785.23
2023-08-08T15:57:25.056Z,97787.02
2023-08-08T15:59:56.678Z,97794.23
2023-08-08T16:02:28.959Z,97790.85
2023-08-08T16:05:01.360Z,97792.57
2023-08-08T16:07:33.001Z,97788.05
2023-08-08T16:10:05.049Z,97788.82
2023-08-08T16:12:37.172Z,97788.80
2023-08-08T16:15:10.752Z,97788.17
2023-08-08T16:17:42.409Z,97783.36
2023-08-08T16:20:16.851Z,97790.86
2023-08-08T16:22:50.161Z,97793.02
2023-08-08T16:25:22.086Z,97796.73
2023-08-08T16:27:53.695Z,97801.46
2023-08-08T16:30:25.776Z,97804.74
2023-08-08T16:32:57.441Z,97805.05
2023-08-08T16:35:29.860Z,97803.55
2023-08-08T16:38:01.563Z,97802.13
2023-08-08T16:40:33.202Z,97805.75
2023-08-08T16:43:05.126Z,97804.20
2023-08-08T16:45:36.761Z,97805.95
2023-08-08T16:48:09.380Z,97803.68
2023-08-08T16:50:41.825Z,97803.89
2023-08-08T16:53:13.607Z,97801.33
2023-08-08T16:55:45.356Z,97798.48
2023-08-08T16:58:17.196Z,97793.44
2023-08-08T17:00:49.133Z,97794.39
2023-08-08T17:03:21.030Z,97797.80
2023-08-08T17:05:53.367Z,97802.20
2023-08-08T17:08:25.065Z,97805.84
2023-08-08T17:10:56.656Z,97802.88
2023-08-08T17:13:31.001Z,97808.54
2023-08-08T17:16:03.223Z,97812.02
2023-08-08T17:18:35.268Z,97810.35
2023-08-08T17:21:06.920Z,97814.69
2023-08-08T17:23:38.696Z,97812.55
2023-08-08T17:26:10.488Z,97811.02
2023-08-08T17:28:42.340Z,97808.91
2023-08-08T17:31:14.112Z,97808.54
2023-08-08T17:33:45.889Z,97803.08
2023-08-08T17:36:17.534Z,97801.61
2023-08-08T17:38:49.100Z,97805.29
2023-08-08T17:41:20.828Z,97811.27
2023-08-08T17:43:52.371Z,97808.26
2023-08-08T17:46:24.052Z,97807.88
2023-08-08T17:48:55.763Z,97805.79
2023-08-08T17:51:27.427Z,97806.86
2023-08-08T17:53:59.070Z,97804.45
2023-08-08T17:56:30.808Z,97813.60
2023-08-08T17:59:02.316Z,97810.84
2023-08-08T18:01:33.944Z,97813.36
2023-08-08T18:04:06.413Z,97813.92
2023-08-08T18:06:39.432Z,97817.27
2023-08-08T18:09:11.408Z,97818.91
2023-08-08T18:11:42.940Z,97819.88
2023-08-08T18:14:14.978Z,97820.91
2023-08-08T18:16:46.861Z,97822.27
2023-08-08T18:19:22.247Z,97820.70
2023-08-08T18:21:53.820Z,97824.98
2023-08-08T18:24:27.138Z,97826.42
2023-08-08T18:27:01.446Z,97827.98
2023-08-08T18:29:34.977Z,97829.93
2023-08-08T18:32:08.249Z,97830.03
2023-08-08T18:34:40.022Z,97832.11
2023-08-08T18:37:11.970Z,97833.47
2023-08-08T18:39:43.672Z,97832.70
2023-08-08T18:42:15.417Z,97835.68
2023-08-08T18:44:49.356Z,97835.84
2023-08-08T18:47:22.717Z,97837.64
2023-08-08T18:49:54.725Z,97840.16
2023-08-08T18:52:27.330Z,97836.32
2023-08-08T18:54:58.982Z,97833.94
2023-08-08T18:57:30.701Z,97833.85
2023-08-08T19:00:04.178Z,97837.64
2023-08-08T19:02:38.675Z,97838.70
2023-08-08T19:05:13.380Z,97835.16
2023-08-08T19:07:48.772Z,97830.20
2023-08-08T19:10:20.545Z,97833.02
2023-08-08T19:12:55.114Z,97831.32
2023-08-08T19:15:32.473Z,97829.52
2023-08-08T19:18:07.424Z,97826.80
2023-08-08T19:20:39.567Z,97827.16
2023-08-08T19:23:11.371Z,97822.83
2023-08-08T19:25:45.222Z,97823.17
2023-08-08T19:28:20.199Z,97823.41
2023-08-08T19:30:53.833Z,97819.39
2023-08-08T19:33:25.733Z,97825.38
2023-08-08T19:35:59.324Z,97821.84
2023-08-08T19:38:31.631Z,97828.80
2023-08-08T19:41:04.489Z,97828.38
2023-08-08T19:43:41.771Z,97829.63
2023-08-08T19:46:15.486Z,97832.35
2023-08-08T19:48:49.842Z,97826.64
2023-08-08T19:51:21.791Z,97820.98
2023-08-08T19:53:53.730Z,97821.78
2023-08-08T19:56:28.207Z,97817.67
2023-08-08T19:59:00.126Z,97823.06
2023-08-08T20:01:31.929Z,97841.70
2023-08-08T20:04:07.206Z,97866.92
2023-08-08T20:06:38.869Z,97883.27
2023-08-08T20:09:10.587Z,97879.10
2023-08-08T20:11:42.624Z,97862.92
2023-08-08T20:14:14.349Z,97851.34
2023-08-08T20:16:46.010Z,97823.63
2023-08-08T20:19:18.318Z,97826.53
2023-08-08T20:21:50.522Z,97833.52
2023-08-08T20:24:22.705Z,97846.50
2023-08-08T20:26:54.498Z,97851.66
2023-08-08T20:29:26.293Z,97859.34
2023-08-08T20:31:58.017Z,97845.38
2023-08-08T20:34:31.759Z,97841.79
2023-08-08T20:37:04.997Z,97839.44
2023-08-08T20:39:36.768Z,97827.68
2023-08-08T20:42:08.929Z,97827.33
2023-08-08T20:44:40.501Z,97821.14
2023-08-08T20:47:12.183Z,97818.31
2023-08-08T20:49:43.985Z,97812.26
2023-08-08T20:52:15.661Z,97808.93
2023-08-08T20:54:47.721Z,97809.43
2023-08-08T20:57:19.558Z,97807.87
2023-08-08T20:59:51.525Z,97801.20
2023-08-08T21:02:23.530Z,97798.90
2023-08-08T21:04:55.329Z,97794.68
2023-08-08T21:07:27.515Z,97796.08
2023-08-08T21:09:59.197Z,97790.67
2023-08-08T21:12:31.008Z,97790.80
2023-08-08T21:15:02.638Z,97797.61
2023-08-08T21:17:34.250Z,97793.79
2023-08-08T21:20:07.835Z,97793.48
2023-08-08T21:22:39.472Z,97796.48
2023-08-08T21:25:12.013Z,97790.78
2023-08-08T21:27:43.740Z,97789.11
2023-08-08T21:30:15.466Z,97786.27
2023-08-08T21:32:47.126Z,97784.17
2023-08-08T21:35:19.210Z,97782.61
2023-08-08T21:37:51.055Z,97786.61
2023-08-08T21:40:23.090Z,97783.73
2023-08-08T21:42:55.422Z,97785.21
2023-08-08T21:45:27.638Z,97785.04
2023-08-08T21:48:00.417Z,97783.69
2023-08-08T21:50:32.438Z,97778.91
2023-08-08T21:53:04.938Z,97779.59
2023-08-08T21:55:36.602Z,97780.29
2023-08-08T21:58:08.381Z,97779.50
2023-08-08T22:00:40.802Z,97778.36
2023-08-08T22:03:13.070Z,97779.50
2023-08-08T22:05:45.262Z,97779.65
2023-08-08T22:08:17.053Z,97778.52
2023-08-08T22:10:49.082Z,97777.53
2023-08-08T22:13:21.943Z,97777.09
2023-08-08T22:15:54.229Z,97773.98
2023-08-08T22:18:26.097Z,97778.16
2023-08-08T22:20:58.090Z,97780.59
2023-08-08T22:23:29.730Z,97784.92
2023-08-08T22:26:01.265Z,97788.46
2023-08-08T22:28:31.404Z,97788.27
2023-08-08T22:31:03.183Z,97788.34
2023-08-08T22:33:35.160Z,97788.08
2023-08-08T22:36:08.003Z,97783.15
2023-08-08T22:38:41.183Z,97785.81
2023-08-08T22:41:12.841Z,97782.33
2023-08-08T22:43:45.815Z,97785.42
2023-08-08T22:46:17.660Z,97782.51
2023-08-08T22:48:49.505Z,97784.35
2023-08-08T22:51:21.239Z,97783.84
2023-08-08T22:53:53.053Z,97780.77
2023-08-08T22:56:24.878Z,97780.61
2023-08-08T22:58:56.494Z,97782.52
2023-08-08T23:01:28.105Z,97781.59
2023-08-08T23:03:59.759Z,97785.45
2023-08-08T23:06:31.773Z,97783.16
2023-08-08T23:09:03.435Z,97782.90
2023-08-08T23:11:35.003Z,97784.11
2023-08-08T23:14:05.448Z,97782.89
2023-08-08T23:16:37.160Z,97784.98
2023-08-08T23:19:08.966Z,97784.29
2023-08-08T23:21:40.630Z,97787.36
2023-08-08T23:24:13.015Z,97788.77
2023-08-08T23:26:45.301Z,97789.30
2023-08-08T23:29:16.887Z,97783.34
2023-08-08T23:31:49.773Z,97790.73
2023-08-08T23:34:21.707Z,97793.63
2023-08-08T23:36:53.380Z,97791.04
2023-08-08T23:39:25.123Z,97790.66
2023-08-08T23:41:56.696Z,97789.67
2023-08-08T23:44:28.315Z,97793.17
2023-08-08T23:47:00.363Z,97791.14
2023-08-08T23:49:32.655Z,97793.13
2023-08-08T23:52:04.709Z,97794.77
2023-08-08T23:54:36.674Z,97798.08
2023-08-08T23:57:08.746Z,97796.81
2023-08-08T23:59:40.350Z,97797.77
